createdAt,value
2023-05-14T00:02:14.067Z,1007.10
2023-05-14T00:04:47.013Z,1007.10
2023-05-14T00:07:19.915Z,1007.08
2023-05-14T00:09:53.251Z,1007.05
2023-05-14T00:12:26.846Z,1007.03
2023-05-14T00:14:59.644Z,1007.01
2023-05-14T00:17:32.964Z,1006.99
2023-05-14T00:20:06.021Z,1006.96
2023-05-14T00:22:38.667Z,1006.95
2023-05-14T00:25:12.070Z,1006.93
2023-05-14T00:27:45.188Z,1006.92
2023-05-14T00:30:18.978Z,1006.90
2023-05-14T00:32:52.148Z,1006.88
2023-05-14T00:35:24.956Z,1006.86
2023-05-14T00:37:58.029Z,1006.82
2023-05-14T00:40:31.149Z,1006.79
2023-05-14T00:43:03.952Z,1006.77
2023-05-14T00:45:36.704Z,1006.74
2023-05-14T00:48:09.974Z,1006.72
2023-05-14T00:50:43.055Z,1006.71
2023-05-14T00:53:16.191Z,1006.69
2023-05-14T00:55:50.063Z,1006.68
2023-05-14T00:58:22.994Z,1006.68
2023-05-14T01:00:56.165Z,1006.66
2023-05-14T01:03:29.261Z,1006.64
2023-05-14T01:06:01.938Z,1006.62
2023-05-14T01:08:34.912Z,1006.60
2023-05-14T01:11:08.126Z,1006.58
2023-05-14T01:13:41.179Z,1006.57
2023-05-14T01:16:14.230Z,1006.55
2023-05-14T01:18:47.198Z,1006.54
2023-05-14T01:21:19.756Z,1006.53
2023-05-14T01:23:52.898Z,1006.54
2023-05-14T01:26:26.050Z,1006.54
2023-05-14T01:28:59.080Z,1006.54
2023-05-14T01:31:32.299Z,1006.54
2023-05-14T01:34:06.036Z,1006.54
2023-05-14T01:36:53.297Z,1006.54
2023-05-14T01:39:27.202Z,1006.55
2023-05-14T01:42:00.196Z,1006.56
2023-05-14T01:44:33.048Z,1006.55
2023-05-14T01:47:06.078Z,1006.56
2023-05-14T01:49:38.901Z,1006.57
2023-05-14T01:52:12.235Z,1006.58
2023-05-14T01:54:46.242Z,1006.59
2023-05-14T01:57:19.100Z,1006.58
2023-05-14T01:59:52.150Z,1006.57
2023-05-14T02:02:25.103Z,1006.57
2023-05-14T02:04:58.215Z,1006.57
2023-05-14T02:07:31.168Z,1006.57
2023-05-14T02:10:04.173Z,1006.56
2023-05-14T02:12:37.301Z,1006.55
2023-05-14T02:15:10.271Z,1006.53
2023-05-14T02:17:44.244Z,1006.53
2023-05-14T02:20:20.996Z,1006.50
2023-05-14T02:22:54.185Z,1006.50
2023-05-14T02:25:27.390Z,1006.48
2023-05-14T02:28:01.364Z,1006.48
2023-05-14T02:30:34.225Z,1006.47
2023-05-14T02:33:07.179Z,1006.43
2023-05-14T02:35:39.955Z,1006.42
2023-05-14T02:38:13.210Z,1006.41
2023-05-14T02:40:46.253Z,1006.41
2023-05-14T02:43:22.806Z,1006.40
2023-05-14T02:45:56.210Z,1006.39
2023-05-14T02:48:29.019Z,1006.39
2023-05-14T02:51:02.210Z,1006.39
2023-05-14T02:53:35.448Z,1006.39
2023-05-14T02:56:08.895Z,1006.39
2023-05-14T02:58:42.281Z,1006.38
2023-05-14T03:01:15.307Z,1006.38
2023-05-14T03:03:48.071Z,1006.36
2023-05-14T03:06:20.891Z,1006.36
2023-05-14T03:08:54.351Z,1006.35
2023-05-14T03:11:27.956Z,1006.32
2023-05-14T03:14:01.354Z,1006.31
2023-05-14T03:16:34.333Z,1006.29
2023-05-14T03:19:07.307Z,1006.27
2023-05-14T03:21:40.304Z,1006.27
2023-05-14T03:24:13.258Z,1006.26
2023-05-14T03:26:46.259Z,1006.25
2023-05-14T03:29:18.984Z,1006.26
2023-05-14T03:31:52.234Z,1006.28
2023-05-14T03:34:25.330Z,1006.27
2023-05-14T03:36:58.053Z,1006.28
2023-05-14T03:39:31.453Z,1006.29
2023-05-14T03:42:05.108Z,1006.30
2023-05-14T03:44:38.384Z,1006.31
2023-05-14T03:47:11.180Z,1006.30
2023-05-14T03:49:44.491Z,1006.30
2023-05-14T03:52:18.148Z,1006.30
2023-05-14T03:54:51.311Z,1006.30
2023-05-14T03:57:24.222Z,1006.30
2023-05-14T03:59:57.476Z,1006.30
2023-05-14T04:02:31.487Z,1006.30
2023-05-14T04:05:04.293Z,1006.31
2023-05-14T04:07:37.358Z,1006.32
2023-05-14T04:10:10.211Z,1006.31
2023-05-14T04:12:43.446Z,1006.32
2023-05-14T04:15:17.147Z,1006.32
2023-05-14T04:17:50.474Z,1006.33
2023-05-14T04:20:23.512Z,1006.33
2023-05-14T04:22:59.397Z,1006.32
2023-05-14T04:25:32.424Z,1006.32
2023-05-14T04:28:05.100Z,1006.33
2023-05-14T04:30:38.364Z,1006.32
2023-05-14T04:33:11.301Z,1006.32
2023-05-14T04:35:44.432Z,1006.32
2023-05-14T04:38:17.427Z,1006.32
2023-05-14T04:40:50.682Z,1006.34
2023-05-14T04:43:24.018Z,1006.33
2023-05-14T04:45:57.452Z,1006.32
2023-05-14T04:48:30.655Z,1006.32
2023-05-14T04:51:06.356Z,1006.30
2023-05-14T04:53:37.399Z,1006.29
2023-05-14T04:56:10.502Z,1006.28
2023-05-14T04:58:44.304Z,1006.28
2023-05-14T05:01:17.377Z,1006.28
2023-05-14T05:03:50.694Z,1006.30
2023-05-14T05:06:24.373Z,1006.33
2023-05-14T05:08:57.801Z,1006.35
2023-05-14T05:11:30.159Z,1006.37
2023-05-14T05:14:03.421Z,1006.39
2023-05-14T05:16:36.481Z,1006.41
2023-05-14T05:19:09.399Z,1006.42
2023-05-14T05:21:42.199Z,1006.45
2023-05-14T05:24:15.366Z,1006.47
2023-05-14T05:26:48.419Z,1006.49
2023-05-14T05:29:21.386Z,1006.51
2023-05-14T05:31:54.518Z,1006.53
2023-05-14T05:34:27.299Z,1006.54
2023-05-14T05:37:00.474Z,1006.57
2023-05-14T05:39:33.104Z,1006.57
2023-05-14T05:42:06.393Z,1006.58
2023-05-14T05:44:39.378Z,1006.58
2023-05-14T05:47:12.594Z,1006.57
2023-05-14T05:49:47.519Z,1006.57
2023-05-14T05:52:34.199Z,1006.57
2023-05-14T05:55:07.118Z,1006.55
2023-05-14T05:57:41.512Z,1006.54
2023-05-14T06:00:14.483Z,1006.52
2023-05-14T06:02:47.733Z,1006.52
2023-05-14T06:05:21.574Z,1006.53
2023-05-14T06:07:54.392Z,1006.53
2023-05-14T06:10:27.505Z,1006.54
2023-05-14T06:13:00.684Z,1006.55
2023-05-14T06:15:34.386Z,1006.55
2023-05-14T06:18:07.690Z,1006.56
2023-05-14T06:20:40.695Z,1006.58
2023-05-14T06:23:14.590Z,1006.59
2023-05-14T06:28:20.625Z,1006.60
2023-05-14T06:30:53.471Z,1006.58
2023-05-14T06:33:26.232Z,1006.56
2023-05-14T06:36:02.317Z,1006.55
2023-05-14T06:38:35.422Z,1006.54
2023-05-14T06:41:08.464Z,1006.51
2023-05-14T06:43:41.403Z,1006.51
2023-05-14T06:46:14.541Z,1006.49
2023-05-14T06:48:47.603Z,1006.49
2023-05-14T06:51:20.587Z,1006.48
2023-05-14T06:53:53.709Z,1006.47
2023-05-14T06:56:27.206Z,1006.46
2023-05-14T06:59:00.397Z,1006.44
2023-05-14T07:01:36.825Z,1006.42
2023-05-14T07:04:10.380Z,1006.41
2023-05-14T07:06:43.507Z,1006.39
2023-05-14T07:09:16.488Z,1006.38
2023-05-14T07:11:49.444Z,1006.35
2023-05-14T07:14:22.300Z,1006.33
2023-05-14T07:16:55.539Z,1006.32
2023-05-14T07:19:29.284Z,1006.32
2023-05-14T07:22:02.297Z,1006.31
2023-05-14T07:24:35.420Z,1006.30
2023-05-14T07:27:08.418Z,1006.29
2023-05-14T07:29:41.374Z,1006.28
2023-05-14T07:32:15.691Z,1006.26
2023-05-14T07:34:47.579Z,1006.25
2023-05-14T07:37:22.423Z,1006.22
2023-05-14T07:39:54.641Z,1006.20
2023-05-14T07:42:36.046Z,1006.19
2023-05-14T07:45:00.634Z,1006.16
2023-05-14T07:47:37.008Z,1006.12
2023-05-14T07:50:10.345Z,1006.09
2023-05-14T07:52:43.497Z,1006.06
2023-05-14T07:55:16.339Z,1006.04
2023-05-14T07:58:03.521Z,1006.02
2023-05-14T08:00:36.661Z,1006.00
2023-05-14T08:03:09.660Z,1005.96
2023-05-14T08:05:42.690Z,1005.94
2023-05-14T08:08:15.606Z,1005.92
2023-05-14T08:10:48.691Z,1005.90
2023-05-14T08:13:21.353Z,1005.88
2023-05-14T08:15:54.674Z,1005.87
2023-05-14T08:18:27.640Z,1005.87
2023-05-14T08:21:06.766Z,1005.86
2023-05-14T08:23:39.364Z,1005.85
2023-05-14T08:26:12.574Z,1005.82
2023-05-14T08:28:45.656Z,1005.82
2023-05-14T08:31:18.696Z,1005.79
2023-05-14T08:33:51.656Z,1005.79
2023-05-14T08:36:24.754Z,1005.76
2023-05-14T08:38:57.561Z,1005.76
2023-05-14T08:41:30.358Z,1005.76
2023-05-14T08:44:03.382Z,1005.75
2023-05-14T08:46:36.363Z,1005.73
2023-05-14T08:49:09.741Z,1005.70
2023-05-14T08:51:42.542Z,1005.67
2023-05-14T08:54:15.422Z,1005.65
2023-05-14T08:56:50.491Z,1005.62
2023-05-14T08:59:21.394Z,1005.61
2023-05-14T09:01:54.631Z,1005.58
2023-05-14T09:04:27.538Z,1005.55
2023-05-14T09:07:00.583Z,1005.54
2023-05-14T09:09:33.689Z,1005.54
2023-05-14T09:12:06.687Z,1005.50
2023-05-14T09:14:39.816Z,1005.49
2023-05-14T09:17:12.475Z,1005.47
2023-05-14T09:19:48.645Z,1005.47
2023-05-14T09:22:21.499Z,1005.44
2023-05-14T09:24:54.655Z,1005.42
2023-05-14T09:27:27.621Z,1005.41
2023-05-14T09:30:00.632Z,1005.40
2023-05-14T09:32:33.580Z,1005.40
2023-05-14T09:35:06.584Z,1005.38
2023-05-14T09:37:39.590Z,1005.36
2023-05-14T09:40:12.658Z,1005.37
2023-05-14T09:42:45.469Z,1005.36
2023-05-14T09:45:18.506Z,1005.34
2023-05-14T09:47:51.857Z,1005.35
2023-05-14T09:50:25.056Z,1005.35
2023-05-14T09:52:57.653Z,1005.35
2023-05-14T09:55:30.795Z,1005.34
2023-05-14T09:58:03.726Z,1005.34
2023-05-14T10:00:36.767Z,1005.34
2023-05-14T10:03:09.601Z,1005.34
2023-05-14T10:05:42.737Z,1005.33
2023-05-14T10:08:15.537Z,1005.33
2023-05-14T10:10:48.597Z,1005.33
2023-05-14T10:13:21.527Z,1005.34
2023-05-14T10:16:00.569Z,1005.34
2023-05-14T10:18:33.550Z,1005.34
2023-05-14T10:21:06.539Z,1005.33
2023-05-14T10:23:39.525Z,1005.36
2023-05-14T10:26:12.802Z,1005.37
2023-05-14T10:28:45.534Z,1005.39
2023-05-14T10:31:18.853Z,1005.41
2023-05-14T10:33:51.845Z,1005.40
2023-05-14T10:36:24.745Z,1005.38
2023-05-14T10:38:57.983Z,1005.38
2023-05-14T10:41:30.913Z,1005.36
2023-05-14T10:44:03.559Z,1005.34
2023-05-14T10:46:36.607Z,1005.33
2023-05-14T10:49:09.564Z,1005.32
2023-05-14T10:51:42.761Z,1005.32
2023-05-14T10:54:15.574Z,1005.32
2023-05-14T10:56:48.579Z,1005.33
2023-05-14T10:59:21.567Z,1005.32
2023-05-14T11:01:54.703Z,1005.31
2023-05-14T11:04:27.840Z,1005.31
2023-05-14T11:07:00.830Z,1005.31
2023-05-14T11:09:33.648Z,1005.30
2023-05-14T11:12:06.748Z,1005.28
2023-05-14T11:14:39.604Z,1005.26
2023-05-14T11:17:12.856Z,1005.25
2023-05-14T11:19:45.617Z,1005.24
2023-05-14T11:22:18.615Z,1005.20
2023-05-14T11:24:51.659Z,1005.19
2023-05-14T11:27:26.013Z,1005.18
2023-05-14T11:29:59.078Z,1005.16
2023-05-14T11:32:32.921Z,1005.16
2023-05-14T11:35:06.649Z,1005.15
2023-05-14T11:37:39.985Z,1005.14
2023-05-14T11:40:13.117Z,1005.13
2023-05-14T11:42:47.915Z,1005.12
2023-05-14T11:45:20.917Z,1005.10
2023-05-14T11:47:54.112Z,1005.07
2023-05-14T11:50:27.183Z,1005.06
2023-05-14T11:53:00.240Z,1005.03
2023-05-14T11:55:33.961Z,1005.01
2023-05-14T11:58:06.922Z,1004.98
2023-05-14T12:00:39.956Z,1004.96
2023-05-14T12:03:13.300Z,1004.94
2023-05-14T12:05:46.919Z,1004.94
2023-05-14T12:08:20.708Z,1004.92
2023-05-14T12:10:53.990Z,1004.89
2023-05-14T12:13:27.085Z,1004.88
2023-05-14T12:16:00.058Z,1004.85
2023-05-14T12:18:33.182Z,1004.84
2023-05-14T12:21:05.985Z,1004.81
2023-05-14T12:23:39.976Z,1004.80
2023-05-14T12:26:13.171Z,1004.77
2023-05-14T12:28:47.004Z,1004.75
2023-05-14T12:31:20.031Z,1004.73
2023-05-14T12:33:53.073Z,1004.72
2023-05-14T12:36:25.986Z,1004.69
2023-05-14T12:38:59.134Z,1004.65
2023-05-14T12:41:32.109Z,1004.62
2023-05-14T12:44:04.765Z,1004.58
2023-05-14T12:46:42.901Z,1004.55
2023-05-14T12:49:16.711Z,1004.52
2023-05-14T12:51:56.687Z,1004.50
2023-05-14T12:54:25.216Z,1004.47
2023-05-14T12:56:59.254Z,1004.44
2023-05-14T12:59:32.762Z,1004.41
2023-05-14T13:02:06.002Z,1004.37
2023-05-14T13:04:39.122Z,1004.34
2023-05-14T13:07:12.006Z,1004.32
2023-05-14T13:09:44.789Z,1004.29
2023-05-14T13:12:18.048Z,1004.28
2023-05-14T13:14:50.895Z,1004.25
2023-05-14T13:17:23.990Z,1004.23
2023-05-14T13:19:57.016Z,1004.20
2023-05-14T13:22:29.820Z,1004.18
2023-05-14T13:25:04.038Z,1004.16
2023-05-14T13:27:36.798Z,1004.14
2023-05-14T13:30:10.047Z,1004.11
2023-05-14T13:32:42.855Z,1004.09
2023-05-14T13:35:16.101Z,1004.07
2023-05-14T13:37:50.236Z,1004.04
2023-05-14T13:40:24.113Z,1004.02
2023-05-14T13:42:58.079Z,1003.98
2023-05-14T13:45:31.089Z,1003.95
2023-05-14T13:48:03.833Z,1003.92
2023-05-14T13:50:37.086Z,1003.88
2023-05-14T13:53:10.082Z,1003.84
2023-05-14T13:55:43.948Z,1003.80
2023-05-14T13:58:16.249Z,1003.77
2023-05-14T14:00:49.017Z,1003.72
2023-05-14T14:03:22.513Z,1003.69
2023-05-14T14:05:56.354Z,1003.64
2023-05-14T14:08:30.227Z,1003.60
2023-05-14T14:11:02.918Z,1003.55
2023-05-14T14:13:49.774Z,1003.50
2023-05-14T14:16:23.177Z,1003.45
2023-05-14T14:18:56.169Z,1003.41
2023-05-14T14:21:29.052Z,1003.38
2023-05-14T14:24:02.005Z,1003.33
2023-05-14T14:26:34.860Z,1003.30
2023-05-14T14:29:08.189Z,1003.26
2023-05-14T14:31:41.927Z,1003.22
2023-05-14T14:34:16.362Z,1003.20
2023-05-14T14:36:50.335Z,1003.17
2023-05-14T14:39:28.132Z,1003.15
2023-05-14T14:42:02.095Z,1003.12
2023-05-14T14:44:34.924Z,1003.08
2023-05-14T14:47:09.170Z,1003.05
2023-05-14T14:49:42.351Z,1003.02
2023-05-14T14:52:16.323Z,1002.99
2023-05-14T14:54:53.437Z,1002.98
2023-05-14T14:57:31.162Z,1002.96
2023-05-14T15:00:13.732Z,1002.95
2023-05-14T15:02:51.269Z,1002.94
2023-05-14T15:05:37.397Z,1002.91
2023-05-14T15:08:11.157Z,1002.88
2023-05-14T15:10:44.049Z,1002.88
2023-05-14T15:13:17.085Z,1002.87
2023-05-14T15:15:51.241Z,1002.88
2023-05-14T15:18:25.323Z,1002.87
2023-05-14T15:20:59.270Z,1002.88
2023-05-14T15:23:32.344Z,1002.88
2023-05-14T15:26:05.975Z,1002.88
2023-05-14T15:28:39.213Z,1002.87
2023-05-14T15:34:03.276Z,1002.84
2023-05-14T15:36:37.195Z,1002.82
2023-05-14T15:39:10.324Z,1002.82
2023-05-14T15:41:43.411Z,1002.82
2023-05-14T15:44:20.198Z,1002.80
2023-05-14T15:46:55.873Z,1002.80
2023-05-14T15:49:29.207Z,1002.80
2023-05-14T15:52:07.900Z,1002.80
2023-05-14T15:54:48.366Z,1002.77
2023-05-14T15:57:21.439Z,1002.75
2023-05-14T15:59:54.324Z,1002.74
2023-05-14T16:02:28.474Z,1002.72
2023-05-14T16:05:01.420Z,1002.71
2023-05-14T16:07:35.282Z,1002.69
2023-05-14T16:10:13.009Z,1002.67
2023-05-14T16:12:46.282Z,1002.65
2023-05-14T16:15:19.273Z,1002.62
2023-05-14T16:17:56.336Z,1002.59
2023-05-14T16:20:29.069Z,1002.58
2023-05-14T16:23:02.245Z,1002.58
2023-05-14T16:25:36.287Z,1002.59
2023-05-14T16:28:09.100Z,1002.57
2023-05-14T16:30:42.560Z,1002.56
2023-05-14T16:33:16.399Z,1002.56
2023-05-14T16:35:55.988Z,1002.57
2023-05-14T16:38:33.050Z,1002.57
2023-05-14T16:41:13.328Z,1002.56
2023-05-14T16:43:46.247Z,1002.55
2023-05-14T16:46:19.407Z,1002.55
2023-05-14T16:48:58.348Z,1002.55
2023-05-14T16:51:31.646Z,1002.54
2023-05-14T16:54:05.084Z,1002.52
2023-05-14T16:56:41.957Z,1002.50
2023-05-14T16:59:15.227Z,1002.48
2023-05-14T17:01:48.297Z,1002.47
2023-05-14T17:04:21.680Z,1002.45
2023-05-14T17:06:55.175Z,1002.44
2023-05-14T17:09:28.077Z,1002.45
2023-05-14T17:12:01.229Z,1002.46
2023-05-14T17:14:34.274Z,1002.48
2023-05-14T17:17:07.090Z,1002.48
2023-05-14T17:19:40.125Z,1002.49
2023-05-14T17:22:15.108Z,1002.49
2023-05-14T17:24:49.051Z,1002.48
2023-05-14T17:27:22.114Z,1002.48
2023-05-14T17:29:55.363Z,1002.48
2023-05-14T17:32:28.589Z,1002.48
2023-05-14T17:35:01.248Z,1002.49
2023-05-14T17:37:34.350Z,1002.49
2023-05-14T17:40:07.391Z,1002.50
2023-05-14T17:42:40.385Z,1002.49
2023-05-14T17:45:14.393Z,1002.50
2023-05-14T17:47:47.712Z,1002.51
2023-05-14T17:50:21.422Z,1002.53
2023-05-14T17:52:55.515Z,1002.54
2023-05-14T17:55:28.509Z,1002.59
2023-05-14T17:58:01.525Z,1002.60
2023-05-14T18:00:34.552Z,1002.63
2023-05-14T18:03:07.477Z,1002.66
2023-05-14T18:05:40.453Z,1002.68
2023-05-14T18:08:14.656Z,1002.70
2023-05-14T18:10:47.347Z,1002.72
2023-05-14T18:13:20.494Z,1002.73
2023-05-14T18:15:53.483Z,1002.75
2023-05-14T18:18:26.592Z,1002.77
2023-05-14T18:20:59.329Z,1002.78
2023-05-14T18:23:32.599Z,1002.79
2023-05-14T18:26:05.198Z,1002.80
2023-05-14T18:28:38.211Z,1002.83
2023-05-14T18:31:11.501Z,1002.85
2023-05-14T18:33:45.736Z,1002.88
2023-05-14T18:36:19.231Z,1002.92
2023-05-14T18:38:55.473Z,1002.94
2023-05-14T18:41:28.364Z,1002.95
2023-05-14T18:44:02.627Z,1002.96
2023-05-14T18:46:35.787Z,1002.98
2023-05-14T18:49:09.374Z,1003.01
2023-05-14T18:51:42.525Z,1003.03
2023-05-14T18:54:15.582Z,1003.07
2023-05-14T18:56:48.665Z,1003.09
2023-05-14T18:59:21.529Z,1003.11
2023-05-14T19:01:54.590Z,1003.13
2023-05-14T19:04:27.653Z,1003.13
2023-05-14T19:07:01.988Z,1003.15
2023-05-14T19:09:35.499Z,1003.17
2023-05-14T19:12:08.323Z,1003.19
2023-05-14T19:14:41.380Z,1003.21
2023-05-14T19:17:14.435Z,1003.23
2023-05-14T19:19:48.719Z,1003.26
2023-05-14T19:22:21.517Z,1003.29
2023-05-14T19:24:57.576Z,1003.33
2023-05-14T19:27:31.522Z,1003.34
2023-05-14T19:30:04.305Z,1003.36
2023-05-14T19:32:38.714Z,1003.36
2023-05-14T19:35:25.441Z,1003.37
2023-05-14T19:38:02.877Z,1003.37
2023-05-14T19:40:38.844Z,1003.39
2023-05-14T19:43:12.672Z,1003.40
2023-05-14T19:45:45.661Z,1003.41
2023-05-14T19:48:18.529Z,1003.43
2023-05-14T19:50:51.474Z,1003.44
2023-05-14T19:53:25.708Z,1003.46
2023-05-14T19:56:05.140Z,1003.48
2023-05-14T19:58:38.660Z,1003.48
2023-05-14T20:01:11.692Z,1003.50
2023-05-14T20:03:48.489Z,1003.51
2023-05-14T20:06:28.650Z,1003.53
2023-05-14T20:09:01.760Z,1003.53
2023-05-14T20:11:35.540Z,1003.52
2023-05-14T20:14:08.739Z,1003.53
2023-05-14T20:16:41.720Z,1003.52
2023-05-14T20:19:14.625Z,1003.51
2023-05-14T20:21:47.463Z,1003.50
2023-05-14T20:24:20.741Z,1003.49
2023-05-14T20:26:57.451Z,1003.49
2023-05-14T20:29:31.978Z,1003.48
2023-05-14T20:32:05.920Z,1003.47
2023-05-14T20:34:39.666Z,1003.45
2023-05-14T20:37:12.815Z,1003.42
2023-05-14T20:39:45.677Z,1003.40
2023-05-14T20:42:18.845Z,1003.39
2023-05-14T20:44:51.736Z,1003.39
2023-05-14T20:47:24.809Z,1003.39
2023-05-14T20:49:57.679Z,1003.39
2023-05-14T20:52:31.838Z,1003.38
2023-05-14T20:55:04.903Z,1003.36
2023-05-14T20:57:38.428Z,1003.34
2023-05-14T21:00:11.710Z,1003.32
2023-05-14T21:02:44.809Z,1003.30
2023-05-14T21:05:18.838Z,1003.29
2023-05-14T21:07:51.648Z,1003.27
2023-05-14T21:10:27.943Z,1003.25
2023-05-14T21:13:05.720Z,1003.22
2023-05-14T21:15:44.370Z,1003.19
2023-05-14T21:18:20.742Z,1003.17
2023-05-14T21:20:53.588Z,1003.13
2023-05-14T21:23:26.663Z,1003.12
2023-05-14T21:25:59.884Z,1003.10
2023-05-14T21:28:32.846Z,1003.08
2023-05-14T21:31:05.915Z,1003.07
2023-05-14T21:33:40.799Z,1003.06
2023-05-14T21:36:13.783Z,1003.05
2023-05-14T21:38:49.903Z,1003.04
2023-05-14T21:41:22.934Z,1003.03
2023-05-14T21:43:55.877Z,1003.04
2023-05-14T21:46:29.073Z,1003.03
2023-05-14T21:49:02.822Z,1003.02
2023-05-14T21:51:35.879Z,1003.01
2023-05-14T21:54:09.179Z,1003.00
2023-05-14T21:56:42.918Z,1002.99
2023-05-14T21:59:16.487Z,1002.98
2023-05-14T22:02:06.119Z,1002.96
2023-05-14T22:04:22.865Z,1002.94
2023-05-14T22:06:56.092Z,1002.91
2023-05-14T22:09:29.762Z,1002.90
2023-05-14T22:12:02.850Z,1002.88
2023-05-14T22:14:35.711Z,1002.87
2023-05-14T22:17:10.147Z,1002.84
2023-05-14T22:19:47.692Z,1002.83
2023-05-14T22:22:24.733Z,1002.83
2023-05-14T22:24:57.902Z,1002.81
2023-05-14T22:27:30.994Z,1002.78
2023-05-14T22:30:04.938Z,1002.75
2023-05-14T22:32:37.881Z,1002.73
2023-05-14T22:35:10.908Z,1002.70
2023-05-14T22:37:43.833Z,1002.68
2023-05-14T22:40:17.161Z,1002.67
2023-05-14T22:42:50.717Z,1002.67
2023-05-14T22:45:24.187Z,1002.66
2023-05-14T22:47:56.979Z,1002.64
2023-05-14T22:50:30.120Z,1002.62
2023-05-14T22:53:04.424Z,1002.60
2023-05-14T22:55:37.775Z,1002.59
2023-05-14T22:58:11.012Z,1002.56
2023-05-14T23:00:43.759Z,1002.55
2023-05-14T23:03:20.946Z,1002.54
2023-05-14T23:05:53.731Z,1002.55
2023-05-14T23:08:27.023Z,1002.54
2023-05-14T23:10:59.874Z,1002.53
2023-05-14T23:13:33.107Z,1002.53
2023-05-14T23:16:07.035Z,1002.51
2023-05-14T23:18:40.122Z,1002.49
2023-05-14T23:21:13.038Z,1002.48
2023-05-14T23:23:45.849Z,1002.47
2023-05-14T23:26:19.146Z,1002.46
2023-05-14T23:28:57.829Z,1002.44
2023-05-14T23:31:31.093Z,1002.42
2023-05-14T23:34:03.760Z,1002.40
2023-05-14T23:36:37.206Z,1002.39
2023-05-14T23:39:12.025Z,1002.38
2023-05-14T23:41:44.961Z,1002.37
2023-05-14T23:44:17.879Z,1002.36
2023-05-14T23:47:04.974Z,1002.35
2023-05-14T23:49:40.884Z,1002.34
2023-05-14T23:52:14.076Z,1002.33
2023-05-14T23:54:47.110Z,1002.33
2023-05-14T23:57:21.095Z,1002.34
2023-05-14T23:59:54.132Z,1002.33
